Aérodrome :
LOGIN :

S'inscrire | Disclaimer

   EN    FR    IT 

 










Légende :    VFR   VFR Marginal   IFR   IFR Intensif   IFR Très Intensif
Visi : 
Plafond : 
>= 8 km
>= 3000ft
5 à 8 km
1000 à 3000 ft
1500m à 5 km
500 à 1000 ft
800 à 1500m
200 à 500 ft
< 800m
< 200 ft
Symboles :   Orages  Brouillard  Fortes neiges  Fortes précipitations  Vent > 20 kt
SIGMETs :   Divers  Orages  Givrage  Turbulence  Onde Orograph.  Cendres Volcan.






- Altitude de l'aérodrome : 465 ft
- Code IATA : LEJ


EDDP - Leipzig Halle

DERNIER METAR :
  • 091450Z 22013KT 9999 BKN037CB 09/03 Q0999 TEMPO 22015G30KT

METARs EXPIRÉS :
  • 091420Z 22014KT 9999 BKN037 09/03 Q0999 TEMPO 22015G30KT
  • 091350Z 22017KT 9999 BKN037 09/03 Q0999 TEMPO 22015G30KT
  • 091320Z 22015KT 9999 BKN037 09/03 Q0999 TEMPO 22020G30KT
  • 091250Z 21016KT 9999 BKN040 09/03 Q0998 TEMPO 22020G30KT
  • 091220Z 22018KT 9999 BKN037 09/03 Q0998 TEMPO 22020G30KT
  • 091150Z 22021KT 9999 BKN035 09/03 Q0999 TEMPO 22020G30KT

TAF TAF EDDP
Valide du 09 à 12h jusqu'au 10 à 12h UTC


091100Z 0912/1012 22015G25KT 9999 BKN035
PROB40
TEMPO 0914/0924 27020G30KT SHRA BKN020CB
BECMG 0919/0922 28012KT



MET'MAP, la Météo Aéronautique d'un coup d'oeil ! - Copyright ORBIFLY Décembre 2007 - Disclaimer

ORBIFLY MET'MAP TEAM :

Programmation & Développement : Alexandra Zaïnal
Sur une idée originale de : Baudouin d'Aumeries
Assistance à la programmation : Marc-Olivier Méhu
Soutien technique & logistique : Manuel Goepfert

Contact : metmap@orbifly.com




SOURCES & CREDITS :

   NOAA